Time;durP1;ratioP1;P1;durP2;ratioP2;P2;SDS_P1;SDS_P2;PMS_P1;PMS_P2;Temp;Humidity;BMP_temperature;BMP_pressure;BME280_temperature;BME280_humidity;BME280_pressure;Samples;Min_cycle;Max_cycle;Signal;HPM_P1;HPM_P2
2022/03/20 00:00:24;;;;;;;11.07;5.15;;;;;;;;;;5094838;28;20036;-65
2022/03/20 00:02:50;;;;;;;22.20;11.48;;;;;;;;;;5093403;28;20040;-65
2022/03/20 00:05:17;;;;;;;9.52;5.70;;;4.40;99.90;;;;;;5094104;28;20047;-65
2022/03/20 00:07:44;;;;;;;10.13;5.35;;;4.70;99.90;;;;;;5093417;28;20097;-65
2022/03/20 00:10:10;;;;;;;8.30;5.43;;;4.90;99.90;;;;;;5093622;28;20373;-65
2022/03/20 00:12:37;;;;;;;8.57;4.90;;;4.60;99.90;;;;;;5092871;28;20059;-65
2022/03/20 00:15:04;;;;;;;11.68;5.35;;;4.30;99.90;;;;;;5094397;28;20085;-65
2022/03/20 00:17:30;;;;;;;10.18;5.40;;;;;;;;;;5093283;28;20052;-65
2022/03/20 00:19:56;;;;;;;8.80;6.13;;;;;;;;;;5093027;28;20044;-65
2022/03/20 00:22:26;;;;;;;7.57;4.55;;;4.60;99.90;;;;;;5076542;28;20036;-65
2022/03/20 00:24:51;;;;;;;9.45;5.22;;;4.70;99.90;;;;;;5092225;28;20048;-65
2022/03/20 00:27:17;;;;;;;11.10;5.55;;;5.30;99.90;;;;;;5092570;28;20043;-65
2022/03/20 00:29:43;;;;;;;10.82;4.80;;;4.50;99.90;;;;;;5093880;28;20067;-65
2022/03/20 00:32:11;;;;;;;13.48;5.93;;;4.30;99.90;;;;;;5093330;28;20040;-65
2022/03/20 00:34:38;;;;;;;13.93;5.40;;;4.40;99.90;;;;;;5093484;28;20054;-65
2022/03/20 00:37:06;;;;;;;12.30;6.10;;;4.30;99.90;;;;;;5076009;28;20047;-65
2022/03/20 00:39:32;;;;;;;17.25;7.00;;;4.40;99.90;;;;;;5075470;28;20051;-65
2022/03/20 00:41:57;;;;;;;9.07;5.13;;;4.60;99.90;;;;;;5092828;28;20035;-65
2022/03/20 00:44:23;;;;;;;11.68;6.28;;;3.90;99.90;;;;;;5093773;28;20039;-65
2022/03/20 00:46:49;;;;;;;10.63;5.93;;;4.40;99.90;;;;;;5093275;28;20043;-65
2022/03/20 00:49:15;;;;;;;11.70;5.57;;;4.30;99.90;;;;;;5094166;28;20043;-66
2022/03/20 00:51:42;;;;;;;13.05;5.90;;;4.40;99.90;;;;;;5092690;28;20480;-64
2022/03/20 00:54:08;;;;;;;8.77;5.22;;;4.40;99.90;;;;;;5093289;28;20056;-65
2022/03/20 00:56:34;;;;;;;10.60;5.45;;;4.20;99.90;;;;;;5093875;28;20040;-65
2022/03/20 00:59:00;;;;;;;9.98;5.65;;;4.30;99.90;;;;;;5093571;28;20039;-65
2022/03/20 01:01:28;;;;;;;13.30;5.60;;;5.00;99.90;;;;;;5093016;28;20032;-65
2022/03/20 01:03:54;;;;;;;10.15;6.00;;;4.20;99.90;;;;;;5092456;28;20048;-64
2022/03/20 01:06:21;;;;;;;10.32;5.70;;;3.80;99.90;;;;;;5092371;28;20059;-65
2022/03/20 01:08:47;;;;;;;10.18;5.72;;;;;;;;;;5074455;28;20043;-65
2022/03/20 01:11:12;;;;;;;12.18;5.53;;;4.10;99.90;;;;;;5092150;28;20561;-65
2022/03/20 01:13:39;;;;;;;8.77;5.63;;;;;;;;;;5093686;28;20085;-65
2022/03/20 01:16:06;;;;;;;12.90;6.18;;;4.00;99.90;;;;;;5092419;28;20507;-65
2022/03/20 01:18:31;;;;;;;10.57;5.30;;;4.00;99.90;;;;;;5093743;28;20040;-65
2022/03/20 01:20:58;;;;;;;13.55;5.88;;;4.20;99.90;;;;;;5092570;28;20114;-65
2022/03/20 01:23:23;;;;;;;13.45;6.15;;;3.90;99.90;;;;;;5091962;28;20092;-65
2022/03/20 01:25:50;;;;;;;14.52;7.15;;;4.00;99.90;;;;;;5093038;28;20123;-65
2022/03/20 01:28:17;;;;;;;13.38;5.93;;;4.10;99.90;;;;;;5091145;28;20116;-65
2022/03/20 01:30:44;;;;;;;11.25;5.50;;;4.10;99.90;;;;;;5091816;28;20076;-65
2022/03/20 01:33:10;;;;;;;8.80;5.25;;;4.10;99.90;;;;;;5091770;28;20056;-65
2022/03/20 01:35:36;;;;;;;12.75;5.90;;;;;;;;;;5091379;28;20044;-65
2022/03/20 01:38:03;;;;;;;10.70;6.07;;;3.90;99.90;;;;;;5093093;28;20031;-65
2022/03/20 01:40:29;;;;;;;12.20;5.80;;;;;;;;;;5074402;28;20071;-64
2022/03/20 01:42:54;;;;;;;12.70;5.53;;;4.10;99.90;;;;;;5090690;28;20032;-64
2022/03/20 01:45:22;;;;;;;16.08;5.68;;;4.20;99.90;;;;;;5091768;28;20046;-65
2022/03/20 01:47:49;;;;;;;14.30;6.43;;;4.00;99.90;;;;;;5092882;28;20068;-65
2022/03/20 01:50:24;;;;;;;10.52;5.72;;;3.70;99.90;;;;;;5092124;28;20441;-65
2022/03/20 01:52:51;;;;;;;12.48;6.05;;;3.90;99.90;;;;;;5091533;28;20083;-65
2022/03/20 01:55:19;;;;;;;10.93;5.95;;;3.90;99.90;;;;;;5091364;28;20055;-65
2022/03/20 01:57:45;;;;;;;11.13;5.60;;;4.00;99.90;;;;;;5090318;28;20051;-65
2022/03/20 02:00:14;;;;;;;11.80;6.28;;;3.70;99.90;;;;;;5091436;28;20048;-65
2022/03/20 02:02:40;;;;;;;10.73;5.65;;;;;;;;;;5092619;28;20094;-65
2022/03/20 02:05:09;;;;;;;11.23;6.82;;;3.80;99.90;;;;;;5091974;28;20040;-65
2022/03/20 02:07:35;;;;;;;10.88;5.65;;;3.80;99.90;;;;;;5092724;28;20036;-64
2022/03/20 02:10:01;;;;;;;13.57;6.03;;;3.90;99.90;;;;;;5092491;28;20073;-65
2022/03/20 02:12:28;;;;;;;12.15;6.70;;;3.90;99.90;;;;;;5090435;28;20118;-65
2022/03/20 02:14:55;;;;;;;11.82;6.75;;;3.90;99.90;;;;;;5092245;28;20501;-65
2022/03/20 02:17:21;;;;;;;12.35;6.20;;;3.60;99.90;;;;;;5091653;28;20141;-65
2022/03/20 02:19:50;;;;;;;11.48;6.43;;;3.70;99.90;;;;;;5092293;28;20506;-65
2022/03/20 02:22:17;;;;;;;13.73;7.28;;;3.80;99.90;;;;;;5092134;28;20036;-65
2022/03/20 02:24:46;;;;;;;11.40;6.22;;;3.80;99.90;;;;;;5091695;28;20072;-65
2022/03/20 02:27:16;;;;;;;12.82;6.53;;;3.70;99.90;;;;;;5073895;28;20082;-65
2022/03/20 02:29:51;;;;;;;13.55;7.20;;;3.70;99.90;;;;;;5091014;28;20123;-65
2022/03/20 02:32:19;;;;;;;10.13;6.07;;;3.50;99.90;;;;;;5091461;28;20433;-65
2022/03/20 02:34:48;;;;;;;12.70;5.93;;;3.10;99.90;;;;;;5090787;28;20043;-65
2022/03/20 02:37:17;;;;;;;11.02;5.90;;;3.30;99.90;;;;;;5090762;28;20063;-65
2022/03/20 02:39:43;;;;;;;13.20;6.60;;;3.60;99.90;;;;;;5091502;28;20063;-65
2022/03/20 02:42:09;;;;;;;12.55;6.30;;;3.50;99.90;;;;;;5090737;28;20125;-65
2022/03/20 02:45:05;;;;;;;12.70;6.25;;;3.50;99.90;;;;;;5091349;28;20044;-65
2022/03/20 02:47:41;;;;;;;11.55;6.03;;;3.50;99.90;;;;;;5090150;28;20453;-65
2022/03/20 02:50:18;;;;;;;13.43;6.57;;;3.50;99.90;;;;;;5092301;28;20119;-65
2022/03/20 02:53:02;;;;;;;12.68;7.70;;;3.40;99.90;;;;;;5094894;28;20396;-65
2022/03/20 02:55:31;;;;;;;15.05;8.18;;;3.60;99.90;;;;;;5094586;28;20055;-65
2022/03/20 02:58:01;;;;;;;12.48;6.97;;;3.60;99.90;;;;;;5096315;28;20391;-65
2022/03/20 03:00:28;;;;;;;11.88;7.30;;;3.40;99.90;;;;;;5093972;28;20131;-65
2022/03/20 03:02:55;;;;;;;15.15;7.30;;;3.40;99.90;;;;;;5095989;28;20119;-65
2022/03/20 03:05:24;;;;;;;12.68;7.15;;;3.40;99.90;;;;;;5094686;28;20040;-65
2022/03/20 03:10:57;;;;;;;14.63;8.00;;;3.20;99.90;;;;;;5096135;28;20455;-65
2022/03/20 03:13:31;;;;;;;12.88;6.72;;;3.20;99.90;;;;;;5095192;28;20040;-65
2022/03/20 03:16:16;;;;;;;11.80;7.18;;;3.00;99.90;;;;;;5094553;28;20036;-65
2022/03/20 03:18:44;;;;;;;15.33;7.27;;;3.20;99.90;;;;;;5095949;28;20050;-65
2022/03/20 03:21:12;;;;;;;15.50;7.95;;;3.20;99.90;;;;;;5093786;28;20588;-65
2022/03/20 03:23:38;;;;;;;12.35;6.63;;;3.30;99.90;;;;;;5094768;28;20047;-65
2022/03/20 03:26:04;;;;;;;12.45;6.60;;;;;;;;;;5094422;28;20370;-65
2022/03/20 03:28:37;;;;;;;15.55;9.23;;;;;;;;;;5094701;28;20083;-65
2022/03/20 03:31:04;;;;;;;15.52;8.48;;;3.20;99.90;;;;;;5095404;28;20044;-65
2022/03/20 03:33:30;;;;;;;19.08;8.18;;;3.50;99.90;;;;;;5077207;28;20089;-65
2022/03/20 03:35:57;;;;;;;11.50;7.45;;;3.10;99.90;;;;;;5093432;28;20040;-65
2022/03/20 03:38:27;;;;;;;17.52;8.65;;;3.20;99.90;;;;;;5095317;28;20482;-65
2022/03/20 03:40:57;;;;;;;16.65;8.68;;;3.30;99.90;;;;;;5095312;28;20134;-65
2022/03/20 03:43:24;;;;;;;15.93;7.63;;;;;;;;;;5093210;28;20032;-65
2022/03/20 03:45:50;;;;;;;18.02;8.85;;;;;;;;;;5095340;28;20837;-65
2022/03/20 03:48:18;;;;;;;16.17;8.45;;;4.10;99.90;;;;;;5093831;28;20048;-65
2022/03/20 03:50:46;;;;;;;15.30;8.52;;;3.10;99.90;;;;;;5094447;28;20106;-65
2022/03/20 03:53:12;;;;;;;14.70;8.55;;;;;;;;;;5093518;28;20496;-65
2022/03/20 03:55:43;;;;;;;15.82;8.45;;;3.20;99.90;;;;;;5093221;28;20059;-65
2022/03/20 03:58:10;;;;;;;15.07;8.98;;;3.10;99.90;;;;;;5093982;28;20392;-65
2022/03/20 04:00:36;;;;;;;16.10;8.65;;;3.20;99.90;;;;;;5095163;28;20036;-65
2022/03/20 04:03:02;;;;;;;14.02;8.65;;;3.20;99.90;;;;;;5093912;28;20044;-65
2022/03/20 04:05:28;;;;;;;16.70;8.85;;;3.30;99.90;;;;;;5094894;28;20090;-65
2022/03/20 04:07:54;;;;;;;21.67;9.90;;;3.20;99.90;;;;;;5094748;28;20036;-65
2022/03/20 04:10:21;;;;;;;17.75;8.57;;;3.10;99.90;;;;;;5092674;28;20491;-65
2022/03/20 04:12:47;;;;;;;17.25;9.05;;;2.90;99.90;;;;;;5094460;28;20048;-65
2022/03/20 04:15:14;;;;;;;16.55;9.82;;;3.20;99.90;;;;;;5094715;28;20032;-65
2022/03/20 04:17:42;;;;;;;18.40;9.55;;;3.20;99.90;;;;;;5093960;28;20043;-65
2022/03/20 04:20:09;;;;;;;16.48;8.93;;;3.30;99.90;;;;;;5094608;28;20075;-65
2022/03/20 04:22:37;;;;;;;18.08;9.88;;;2.80;99.90;;;;;;5093561;28;20094;-65
2022/03/20 04:25:04;;;;;;;17.90;9.63;;;3.00;99.90;;;;;;5093533;28;20436;-65
2022/03/20 04:27:31;;;;;;;18.27;10.52;;;3.00;99.90;;;;;;5094611;28;20389;-65
2022/03/20 04:29:57;;;;;;;17.27;9.10;;;;;;;;;;5094388;28;20085;-65
2022/03/20 04:32:23;;;;;;;15.38;9.05;;;;;;;;;;5092477;28;20087;-65
2022/03/20 04:34:49;;;;;;;18.40;9.80;;;;;;;;;;5093131;28;20396;-65
2022/03/20 04:37:17;;;;;;;15.75;8.73;;;3.00;99.90;;;;;;5094063;28;20039;-65
2022/03/20 04:39:43;;;;;;;19.73;9.80;;;3.00;99.90;;;;;;5093183;28;20040;-65
2022/03/20 04:42:09;;;;;;;16.35;8.88;;;3.00;99.90;;;;;;5094312;28;20122;-65
2022/03/20 04:44:39;;;;;;;18.65;9.75;;;2.90;99.90;;;;;;5094468;28;20029;-65
2022/03/20 04:58:29;;;;;;;15.05;9.40;;;3.30;99.90;;;;;;5093482;28;20122;-65
2022/03/20 05:00:53;;;;;;;20.75;10.52;;;3.00;99.90;;;;;;5091795;28;20051;-65
2022/03/20 05:03:19;;;;;;;19.08;10.40;;;3.00;99.90;;;;;;5092658;28;20119;-65
2022/03/20 05:05:46;;;;;;;19.08;10.32;;;2.90;99.90;;;;;;5093589;28;20075;-65
2022/03/20 05:08:11;;;;;;;15.25;9.30;;;2.90;99.90;;;;;;5092882;28;20079;-65
2022/03/20 05:13:22;;;;;;;16.60;10.35;;;2.50;99.90;;;;;;5091043;28;20047;-65
2022/03/20 05:15:47;;;;;;;18.98;10.23;;;2.70;99.90;;;;;;5091846;28;20043;-65
2022/03/20 05:18:14;;;;;;;20.27;11.50;;;2.80;99.90;;;;;;5092115;28;20067;-64
2022/03/20 05:20:44;;;;;;;18.65;9.75;;;2.60;99.90;;;;;;5091150;28;20088;-64
2022/03/20 05:23:10;;;;;;;19.17;9.73;;;2.30;99.90;;;;;;5092048;28;20036;-65
2022/03/20 05:25:37;;;;;;;17.95;10.30;;;2.70;99.90;;;;;;5093478;28;20047;-65
2022/03/20 05:28:04;;;;;;;19.40;11.10;;;2.90;99.90;;;;;;5091348;28;20063;-65
2022/03/20 05:30:30;;;;;;;19.45;11.45;;;2.60;99.90;;;;;;5075023;28;20035;-65
2022/03/20 05:32:57;;;;;;;15.20;10.02;;;3.40;99.90;;;;;;5091945;28;20488;-65
2022/03/20 05:35:22;;;;;;;19.73;11.07;;;2.50;99.90;;;;;;5074161;28;20047;-65
2022/03/20 05:37:49;;;;;;;18.77;11.35;;;;;;;;;;5091676;28;20044;-65
2022/03/20 05:40:15;;;;;;;18.00;11.18;;;2.60;99.90;;;;;;5093360;28;20086;-65
2022/03/20 05:42:42;;;;;;;17.50;10.43;;;2.60;99.90;;;;;;5092329;28;20392;-65
2022/03/20 05:45:10;;;;;;;18.42;10.77;;;2.30;99.90;;;;;;5092970;28;20040;-65
2022/03/20 05:47:37;;;;;;;16.42;10.27;;;2.60;99.90;;;;;;5093120;28;20037;-65
2022/03/20 05:50:05;;;;;;;18.05;10.90;;;2.50;99.90;;;;;;5091986;28;20079;-65
2022/03/20 05:52:31;;;;;;;18.52;11.23;;;;;;;;;;5093086;28;20548;-65
2022/03/20 05:55:01;;;;;;;20.55;11.77;;;2.50;99.90;;;;;;5091410;28;20056;-65
2022/03/20 06:00:20;;;;;;;19.50;11.75;;;2.70;99.90;;;;;;5092702;28;20075;-65
2022/03/20 06:02:46;;;;;;;21.55;12.35;;;2.50;99.90;;;;;;5091931;28;20071;-65
2022/03/20 06:05:12;;;;;;;24.67;13.10;;;2.90;99.90;;;;;;5092318;28;20119;-65
2022/03/20 06:07:43;;;;;;;18.38;12.27;;;2.60;99.90;;;;;;5092927;28;20058;-65
2022/03/20 06:10:10;;;;;;;21.50;12.73;;;2.70;99.90;;;;;;5073825;28;20040;-65
2022/03/20 06:12:36;;;;;;;31.30;17.75;;;2.50;99.90;;;;;;5092739;28;20044;-64
2022/03/20 06:15:01;;;;;;;32.38;18.90;;;2.60;99.90;;;;;;5092431;28;20079;-64
2022/03/20 06:17:28;;;;;;;24.38;14.05;;;;;;;;;;5091519;28;20048;-64
2022/03/20 06:19:54;;;;;;;25.42;12.80;;;;;;;;;;5091033;28;20036;-65
2022/03/20 06:22:20;;;;;;;20.90;12.20;;;;;;;;;;5091134;28;20048;-64
2022/03/20 06:24:46;;;;;;;20.52;12.77;;;2.50;99.90;;;;;;5091562;28;20036;-65
2022/03/20 06:27:12;;;;;;;18.90;11.68;;;3.00;99.90;;;;;;5073504;28;20119;-64
2022/03/20 06:29:37;;;;;;;22.08;12.38;;;2.90;99.90;;;;;;5092619;28;20172;-64
2022/03/20 06:32:03;;;;;;;19.70;11.40;;;3.20;99.90;;;;;;5090224;28;20044;-64
2022/03/20 06:34:29;;;;;;;23.63;13.27;;;;;;;;;;5092008;28;20047;-65
2022/03/20 06:36:57;;;;;;;19.38;10.07;;;2.90;99.90;;;;;;5092476;28;20040;-65
2022/03/20 06:39:24;;;;;;;19.40;12.27;;;3.10;99.90;;;;;;5091365;28;20047;-65
2022/03/20 06:41:49;;;;;;;20.38;10.68;;;2.90;99.90;;;;;;5092312;28;20404;-65
2022/03/20 06:44:15;;;;;;;22.33;13.30;;;3.20;99.90;;;;;;5092135;28;20040;-64
2022/03/20 06:46:42;;;;;;;23.48;11.85;;;3.10;99.90;;;;;;5091295;28;20047;-64
2022/03/20 06:49:09;;;;;;;17.45;11.90;;;3.00;99.90;;;;;;5092182;28;20044;-64
2022/03/20 06:51:35;;;;;;;21.60;12.02;;;2.90;99.90;;;;;;5090258;28;20580;-64
2022/03/20 06:54:00;;;;;;;19.48;11.52;;;3.30;99.90;;;;;;5090586;28;20056;-65
2022/03/20 06:56:28;;;;;;;30.13;18.25;;;3.20;99.90;;;;;;5092016;28;20106;-65
2022/03/20 06:58:55;;;;;;;21.77;13.10;;;3.40;99.90;;;;;;5091284;28;20115;-65
2022/03/20 07:01:21;;;;;;;22.85;12.68;;;3.40;99.90;;;;;;5090678;28;20039;-65
2022/03/20 07:03:47;;;;;;;23.40;13.95;;;3.40;99.90;;;;;;5090687;28;20122;-65
2022/03/20 07:06:12;;;;;;;20.50;12.18;;;3.40;99.90;;;;;;5089760;28;20135;-65
2022/03/20 07:08:38;;;;;;;23.33;12.95;;;3.40;99.90;;;;;;5090887;28;20048;-65
2022/03/20 07:11:04;;;;;;;27.25;14.02;;;;;;;;;;5091972;28;20123;-65
2022/03/20 07:13:48;;;;;;;20.65;12.25;;;;;;;;;;5090949;28;20469;-65
2022/03/20 07:16:14;;;;;;;20.13;12.85;;;3.60;99.90;;;;;;5091840;28;20051;-65
2022/03/20 07:18:41;;;;;;;22.80;12.57;;;3.60;99.90;;;;;;5091637;28;20430;-65
2022/03/20 07:21:08;;;;;;;18.92;11.13;;;;;;;;;;5089606;28;20396;-65
2022/03/20 07:23:37;;;;;;;20.83;12.05;;;3.30;99.90;;;;;;5092156;28;20036;-65
2022/03/20 07:31:31;;;;;;;19.80;12.88;;;3.40;99.90;;;;;;5092168;28;20051;-65
2022/03/20 07:33:57;;;;;;;21.13;13.40;;;;;;;;;;5089552;28;20412;-66
2022/03/20 07:36:23;;;;;;;20.50;13.15;;;3.80;99.90;;;;;;5090327;28;20044;-66
2022/03/20 07:38:50;;;;;;;23.92;11.90;;;3.90;99.90;;;;;;5094425;28;20042;-65
2022/03/20 07:41:16;;;;;;;19.65;11.20;;;;;;;;;;5094847;28;20051;-65
2022/03/20 07:43:42;;;;;;;19.25;11.98;;;;;;;;;;5103620;28;20085;-65
2022/03/20 07:46:08;;;;;;;21.13;12.35;;;;;;;;;;5104075;28;20055;-66
2022/03/20 07:48:35;;;;;;;20.73;11.55;;;;;;;;;;5095427;28;20476;-65
2022/03/20 07:51:01;;;;;;;20.63;12.88;;;;;;;;;;5104192;28;20039;-65
2022/03/20 07:53:27;;;;;;;18.33;11.32;;;;;;;;;;5112056;28;20065;-66
2022/03/20 07:55:54;;;;;;;19.35;12.00;;;;;;;;;;5088951;28;20044;-66
2022/03/20 07:58:20;;;;;;;20.95;11.75;;;;;;;;;;5112693;28;20036;-66
2022/03/20 08:00:47;;;;;;;20.98;12.32;;;;;;;;;;5111735;28;20515;-65
2022/03/20 08:03:13;;;;;;;18.75;12.48;;;;;;;;;;5112414;28;20043;-66
2022/03/20 08:05:39;;;;;;;22.25;10.15;;;;;;;;;;5110584;28;20051;-65
2022/03/20 08:08:06;;;;;;;17.42;9.63;;;;;;;;;;5104023;28;20056;-66
2022/03/20 08:10:32;;;;;;;18.38;11.18;;;;;;;;;;5090835;28;20055;-66
2022/03/20 08:12:58;;;;;;;20.52;11.60;;;;;;;;;;5104967;28;20044;-66
2022/03/20 08:15:24;;;;;;;19.75;11.60;;;;;;;;;;5091042;28;20093;-66
2022/03/20 08:17:51;;;;;;;18.88;12.57;;;;;;;;;;5101319;28;20451;-66
2022/03/20 08:20:18;;;;;;;21.52;12.93;;;;;;;;;;5100311;28;20047;-65
2022/03/20 08:22:44;;;;;;;18.35;11.52;;;;;;;;;;5112289;28;20411;-66
2022/03/20 08:25:11;;;;;;;20.42;11.38;;;;;;;;;;5110773;28;20510;-66
2022/03/20 08:27:49;;;;;;;18.40;12.00;;;4.90;99.90;;;;;;5105315;28;20029;-65
2022/03/20 08:30:16;;;;;;;19.80;11.75;;;;;;;;;;5091235;28;20075;-65
2022/03/20 08:32:48;;;;;;;21.38;12.55;;;;;;;;;;5090920;28;20138;-65
2022/03/20 08:35:19;;;;;;;16.77;10.43;;;;;;;;;;5085214;28;20082;-66
2022/03/20 08:37:45;;;;;;;19.63;12.15;;;5.20;99.90;;;;;;5089855;28;20044;-65
2022/03/20 08:40:15;;;;;;;21.98;11.45;;;5.50;99.90;;;;;;5091733;28;20533;-65
2022/03/20 08:42:54;;;;;;;18.35;12.05;;;;;;;;;;5098563;28;20084;-65
2022/03/20 08:45:22;;;;;;;21.02;11.95;;;5.40;99.90;;;;;;5092474;28;20093;-66
2022/03/20 08:47:48;;;;;;;22.33;11.57;;;;;;;;;;5093481;28;20035;-65
2022/03/20 08:50:16;;;;;;;17.63;11.40;;;5.60;99.90;;;;;;5091258;28;20089;-66
2022/03/20 08:52:46;;;;;;;20.95;12.85;;;;;;;;;;5089735;28;20067;-66
2022/03/20 08:55:12;;;;;;;20.20;12.10;;;5.60;99.90;;;;;;5107877;28;20039;-65
2022/03/20 08:57:39;;;;;;;21.48;12.50;;;;;;;;;;5108846;28;20039;-65
2022/03/20 09:00:07;;;;;;;19.33;11.77;;;;;;;;;;5074812;28;20492;-66
2022/03/20 09:02:33;;;;;;;20.48;11.80;;;;;;;;;;5090205;28;20500;-66
2022/03/20 09:04:59;;;;;;;24.55;11.43;;;;;;;;;;5097515;28;20322;-65
2022/03/20 09:07:25;;;;;;;26.83;12.52;;;;;;;;;;5104502;28;20096;-65
2022/03/20 09:09:51;;;;;;;18.17;12.45;;;6.00;99.90;;;;;;5111280;28;20096;-65
2022/03/20 09:12:17;;;;;;;22.02;13.90;;;5.80;99.90;;;;;;5110321;27;20426;-65
2022/03/20 09:14:43;;;;;;;18.88;13.13;;;6.00;99.90;;;;;;5107109;28;20109;-65
2022/03/20 09:19:55;;;;;;;20.90;11.57;;;;;;;;;;5089528;28;20040;-65
2022/03/20 09:22:21;;;;;;;19.08;12.57;;;;;;;;;;5097505;28;20054;-65
2022/03/20 09:24:47;;;;;;;22.65;13.50;;;;;;;;;;5096252;28;20051;-65
2022/03/20 09:27:13;;;;;;;22.25;14.48;;;;;;;;;;5103567;28;20118;-64
2022/03/20 09:29:39;;;;;;;25.23;12.90;;;;;;;;;;5091963;28;20078;-65
2022/03/20 09:32:05;;;;;;;24.48;15.07;;;6.70;99.90;;;;;;5104850;28;20453;-65
2022/03/20 09:34:32;;;;;;;22.52;14.18;;;;;;;;;;5090246;28;20040;-64
2022/03/20 09:36:58;;;;;;;24.25;14.90;;;;;;;;;;5076843;28;20472;-65
2022/03/20 09:39:26;;;;;;;21.42;13.55;;;;;;;;;;5096508;28;20058;-65
2022/03/20 09:41:53;;;;;;;22.83;13.07;;;;;;;;;;5088846;28;20087;-65
2022/03/20 09:44:22;;;;;;;24.80;14.00;;;7.00;99.90;;;;;;5091693;28;20132;-65
2022/03/20 09:46:48;;;;;;;24.05;13.90;;;;;;;;;;5093742;28;20108;-65
2022/03/20 09:49:16;;;;;;;20.83;13.75;;;7.10;99.90;;;;;;5083120;28;20073;-65
2022/03/20 09:51:43;;;;;;;21.73;14.13;;;6.90;99.90;;;;;;5107776;28;20040;-65
2022/03/20 09:54:13;;;;;;;21.30;13.75;;;;;;;;;;5090970;28;20055;-65
2022/03/20 09:56:41;;;;;;;23.60;15.38;;;7.30;99.90;;;;;;5106429;28;20051;-65
2022/03/20 09:59:07;;;;;;;22.10;13.38;;;7.20;99.90;;;;;;5107617;28;20047;-65
2022/03/20 10:01:34;;;;;;;20.25;13.20;;;7.00;99.90;;;;;;5104780;28;20129;-65
2022/03/20 10:04:15;;;;;;;27.30;14.90;;;7.40;99.90;;;;;;5106374;28;20040;-65
2022/03/20 10:06:42;;;;;;;21.00;14.23;;;7.40;99.90;;;;;;5093846;28;20070;-65
2022/03/20 10:09:10;;;;;;;24.52;14.60;;;7.70;99.90;;;;;;5087807;28;20101;-65
2022/03/20 10:11:39;;;;;;;25.95;16.63;;;7.60;99.90;;;;;;5091583;28;20036;-67
2022/03/20 10:14:09;;;;;;;21.45;14.38;;;;;;;;;;5090643;28;20050;-65
2022/03/20 10:16:38;;;;;;;23.23;14.85;;;;;;;;;;5104303;28;20040;-66
2022/03/20 10:19:23;;;;;;;21.13;13.23;;;7.80;99.90;;;;;;5109036;28;20041;-62
2022/03/20 10:21:53;;;;;;;;;;;8.40;99.90;;;;;;5108919;28;20092;-65
2022/03/20 10:24:19;;;;;;;22.10;14.23;;;;;;;;;;5106826;28;20027;-66
2022/03/20 10:26:46;;;;;;;23.10;14.35;;;;;;;;;;5108504;28;20061;-66
2022/03/20 10:29:16;;;;;;;21.00;13.15;;;;;;;;;;5110399;28;20088;-65
2022/03/20 10:31:51;;;;;;;22.80;13.85;;;;;;;;;;5103077;28;21395;-66
2022/03/20 10:34:19;;;;;;;22.92;13.98;;;;;;;;;;5096914;28;20035;-66
2022/03/20 10:36:45;;;;;;;24.25;15.63;;;;;;;;;;5099139;28;20047;-66
2022/03/20 10:39:14;;;;;;;23.35;15.98;;;;;;;;;;5101052;28;20036;-65
2022/03/20 10:41:40;;;;;;;23.70;15.90;;;;;;;;;;5107042;28;20051;-66
2022/03/20 10:44:17;;;;;;;24.95;14.20;;;;;;;;;;5089714;28;20039;-66
2022/03/20 10:46:43;;;;;;;25.77;14.40;;;;;;;;;;5099227;28;20046;-66
2022/03/20 10:49:11;;;;;;;24.85;14.23;;;8.70;99.90;;;;;;5102496;28;20063;-66
2022/03/20 10:51:42;;;;;;;22.13;15.55;;;8.60;99.90;;;;;;5102006;28;20040;-66
2022/03/20 10:54:12;;;;;;;24.40;14.45;;;;;;;;;;5092364;28;20573;-66
2022/03/20 10:56:51;;;;;;;21.20;13.35;;;;;;;;;;5092281;28;20044;-66
2022/03/20 10:59:18;;;;;;;26.20;16.08;;;;;;;;;;5101480;28;20123;-66
2022/03/20 11:01:44;;;;;;;25.45;15.25;;;;;;;;;;5101881;28;20051;-66
2022/03/20 11:04:11;;;;;;;30.25;17.35;;;;;;;;;;5105673;28;20084;-65
2022/03/20 11:06:37;;;;;;;21.75;13.77;;;;;;;;;;5096025;28;20422;-66
2022/03/20 11:09:04;;;;;;;26.63;17.35;;;;;;;;;;5096151;28;20044;-66
2022/03/20 11:11:34;;;;;;;27.20;14.77;;;;;;;;;;5102282;28;20086;-66
2022/03/20 11:14:00;;;;;;;24.80;16.10;;;;;;;;;;5112054;28;20122;-65
2022/03/20 11:16:27;;;;;;;24.35;15.63;;;;;;;;;;5113815;28;20127;-66
2022/03/20 11:18:56;;;;;;;23.17;14.05;;;9.30;99.90;;;;;;5103776;27;20039;-65
2022/03/20 11:21:26;;;;;;;23.23;15.23;;;9.00;99.90;;;;;;5092581;28;20040;-64
2022/03/20 11:23:52;;;;;;;24.85;15.75;;;;;;;;;;5100884;28;20380;-65
2022/03/20 11:26:21;;;;;;;22.80;15.10;;;9.30;97.60;;;;;;5105489;28;20066;-66
2022/03/20 11:28:53;;;;;;;26.27;16.20;;;9.50;96.80;;;;;;5093599;28;20048;-66
2022/03/20 11:31:20;;;;;;;23.70;15.25;;;9.20;99.90;;;;;;5091977;28;20112;-66
2022/03/20 11:33:47;;;;;;;25.88;16.55;;;9.30;99.90;;;;;;5092580;28;20480;-66
2022/03/20 11:36:13;;;;;;;33.47;17.20;;;;;;;;;;5093116;28;20043;-65
2022/03/20 11:38:41;;;;;;;26.05;16.15;;;8.40;91.10;;;;;;5077368;28;20055;-66
2022/03/20 11:41:07;;;;;;;19.10;14.80;;;;;;;;;;5103077;28;20055;-65
2022/03/20 11:43:35;;;;;;;23.50;16.05;;;9.60;91.40;;;;;;5111944;28;20036;-65
2022/03/20 11:46:32;;;;;;;24.95;15.95;;;;;;;;;;5111767;28;20046;-65
2022/03/20 11:49:20;;;;;;;28.33;18.23;;;9.70;91.90;;;;;;5093667;28;20488;-65
2022/03/20 11:52:05;;;;;;;25.08;16.27;;;9.90;96.40;;;;;;5092791;28;20040;-66
2022/03/20 11:54:51;;;;;;;;;;;10.00;96.20;;;;;;5091488;28;20109;-66
2022/03/20 11:57:27;;;;;;;26.45;16.45;;;9.80;95.70;;;;;;5091933;28;19928;-65
2022/03/20 11:59:54;;;;;;;25.13;16.15;;;9.90;97.60;;;;;;5095720;28;20048;-65
2022/03/20 12:02:46;;;;;;;25.35;17.38;;;10.20;99.90;;;;;;5121978;27;20039;-66
2022/03/20 12:05:21;;;;;;;25.50;16.17;;;;;;;;;;5098556;28;20097;-66
2022/03/20 12:07:47;;;;;;;;;;;;;;;;;;5100999;28;20050;-66
2022/03/20 12:10:32;;;;;;;23.83;15.82;;;;;;;;;;5109284;28;19989;-65
2022/03/20 12:13:05;;;;;;;27.40;16.17;;;;;;;;;;5103131;28;20047;-65
2022/03/20 12:15:31;;;;;;;24.60;15.60;;;;;;;;;;5093427;28;20142;-66
2022/03/20 12:17:57;;;;;;;26.30;15.15;;;;;;;;;;5105895;28;20659;-65
2022/03/20 12:20:55;;;;;;;23.13;16.17;;;;;;;;;;5112069;28;20051;-65
2022/03/20 12:23:33;;;;;;;26.45;16.45;;;;;;;;;;5111091;28;20052;-65
2022/03/20 12:26:19;;;;;;;24.80;16.42;;;;;;;;;;5110426;28;20510;-65
2022/03/20 12:28:45;;;;;;;26.30;16.30;;;;;;;;;;5111170;28;20039;-65
2022/03/20 12:31:11;;;;;;;27.40;17.25;;;;;;;;;;5111361;28;20439;-66
2022/03/20 12:33:37;;;;;;;26.67;15.45;;;;;;;;;;5111133;28;20130;-65
2022/03/20 12:36:03;;;;;;;28.90;19.38;;;;;;;;;;5109635;28;20139;-65
2022/03/20 12:38:40;;;;;;;27.88;16.45;;;11.10;93.40;;;;;;5101792;28;20055;-64
2022/03/20 12:41:15;;;;;;;25.42;18.45;;;11.30;93.50;;;;;;5110488;28;20047;-64
2022/03/20 12:43:43;;;;;;;24.50;15.68;;;11.30;95.60;;;;;;5094338;28;20035;-64
2022/03/20 12:46:10;;;;;;;25.20;15.98;;;11.30;95.10;;;;;;5111981;28;20416;-64
2022/03/20 12:48:36;;;;;;;30.88;16.65;;;;;;;;;;5095843;28;20075;-65
2022/03/20 12:51:10;;;;;;;23.38;17.10;;;11.10;91.40;;;;;;5107019;28;20093;-65
2022/03/20 12:53:41;;;;;;;24.25;15.00;;;11.10;92.20;;;;;;5095487;28;20054;-65
2022/03/20 12:58:49;;;;;;;22.73;15.95;;;;;;;;;;5109726;28;20052;-65
2022/03/20 13:01:15;;;;;;;25.63;15.98;;;;;;;;;;5106178;28;20047;-65
2022/03/20 13:03:42;;;;;;;25.75;16.27;;;;;;;;;;5102162;28;20032;-65
2022/03/20 13:06:08;;;;;;;23.35;15.50;;;10.80;92.20;;;;;;5089080;28;20044;-65
2022/03/20 13:08:37;;;;;;;27.55;18.45;;;10.70;92.80;;;;;;5095292;28;20499;-65
2022/03/20 13:11:05;;;;;;;27.60;18.10;;;;;;;;;;5112019;28;20073;-64
2022/03/20 13:13:36;;;;;;;25.90;18.15;;;10.70;92.70;;;;;;5109393;28;20058;-65
2022/03/20 13:16:14;;;;;;;27.38;17.35;;;10.60;93.20;;;;;;5107895;28;20064;-64
2022/03/20 13:18:40;;;;;;;26.33;17.67;;;;;;;;;;5095551;28;20341;-65
2022/03/20 13:21:07;;;;;;;25.13;16.85;;;10.60;92.20;;;;;;5095433;28;20047;-65
2022/03/20 13:23:33;;;;;;;25.33;16.95;;;10.60;93.90;;;;;;5105918;28;20049;-65
2022/03/20 13:26:00;;;;;;;26.58;17.92;;;10.60;93.80;;;;;;5105987;28;20106;-65
2022/03/20 13:28:34;;;;;;;25.45;17.10;;;10.70;93.20;;;;;;5107297;28;20042;-65
2022/03/20 13:31:01;;;;;;;25.83;16.73;;;;;;;;;;5110762;28;20424;-65
2022/03/20 13:33:34;;;;;;;24.38;16.25;;;10.90;89.40;;;;;;5099939;28;20139;-65
2022/03/20 13:36:02;;;;;;;28.25;18.83;;;10.80;99.90;;;;;;5108779;28;20074;-65
2022/03/20 13:38:32;;;;;;;23.73;15.80;;;11.10;87.80;;;;;;5111048;28;20093;-65
2022/03/20 13:41:15;;;;;;;24.83;17.73;;;11.10;85.90;;;;;;5103102;28;20042;-64
2022/03/20 13:43:42;;;;;;;25.60;17.15;;;10.70;90.00;;;;;;5110419;28;20115;-64
2022/03/20 13:46:11;;;;;;;24.13;16.15;;;10.60;99.90;;;;;;5109456;28;20054;-64
2022/03/20 13:48:37;;;;;;;26.73;17.45;;;10.90;88.20;;;;;;5104698;28;20169;-64
2022/03/20 13:51:04;;;;;;;25.90;16.58;;;;;;;;;;5108721;28;20043;-64